sensor_id;sensor_type;location;lat;lon;timestamp;temperature;humidity
73777;DHT22;62088;50.240;2.696;2023-05-07T00:02:17;15.40;78.10
73777;DHT22;62088;50.240;2.696;2023-05-07T00:04:44;15.30;78.30
73777;DHT22;62088;50.240;2.696;2023-05-07T00:07:12;15.40;78.40
73777;DHT22;62088;50.240;2.696;2023-05-07T00:09:39;15.40;78.50
73777;DHT22;62088;50.240;2.696;2023-05-07T00:12:07;15.40;78.50
73777;DHT22;62088;50.240;2.696;2023-05-07T00:14:34;15.40;78.50
73777;DHT22;62088;50.240;2.696;2023-05-07T00:17:01;15.40;78.50
73777;DHT22;62088;50.240;2.696;2023-05-07T00:19:28;15.40;78.60
73777;DHT22;62088;50.240;2.696;2023-05-07T00:21:55;15.40;78.60
73777;DHT22;62088;50.240;2.696;2023-05-07T00:24:23;15.40;78.60
73777;DHT22;62088;50.240;2.696;2023-05-07T00:26:50;15.40;78.60
73777;DHT22;62088;50.240;2.696;2023-05-07T00:29:17;15.40;78.70
73777;DHT22;62088;50.240;2.696;2023-05-07T00:31:44;15.40;78.70
73777;DHT22;62088;50.240;2.696;2023-05-07T00:34:12;15.40;78.80
73777;DHT22;62088;50.240;2.696;2023-05-07T00:36:39;15.40;78.80
73777;DHT22;62088;50.240;2.696;2023-05-07T00:39:06;15.40;78.80
73777;DHT22;62088;50.240;2.696;2023-05-07T00:41:33;15.40;78.90
73777;DHT22;62088;50.240;2.696;2023-05-07T00:44:00;15.40;78.90
73777;DHT22;62088;50.240;2.696;2023-05-07T00:46:30;15.40;79.00
73777;DHT22;62088;50.240;2.696;2023-05-07T00:48:58;15.40;79.00
73777;DHT22;62088;50.240;2.696;2023-05-07T00:51:25;15.40;79.00
73777;DHT22;62088;50.240;2.696;2023-05-07T00:53:56;15.40;79.00
73777;DHT22;62088;50.240;2.696;2023-05-07T00:56:23;15.40;79.10
73777;DHT22;62088;50.240;2.696;2023-05-07T00:58:51;15.40;79.10
73777;DHT22;62088;50.240;2.696;2023-05-07T01:01:18;15.40;79.10
73777;DHT22;62088;50.240;2.696;2023-05-07T01:03:45;15.40;79.10
73777;DHT22;62088;50.240;2.696;2023-05-07T01:06:13;15.40;79.20
73777;DHT22;62088;50.240;2.696;2023-05-07T01:08:44;15.40;79.20
73777;DHT22;62088;50.240;2.696;2023-05-07T01:11:12;15.40;79.20
73777;DHT22;62088;50.240;2.696;2023-05-07T01:13:39;15.40;79.30
73777;DHT22;62088;50.240;2.696;2023-05-07T01:16:08;15.40;79.40
73777;DHT22;62088;50.240;2.696;2023-05-07T01:18:36;15.40;79.40
73777;DHT22;62088;50.240;2.696;2023-05-07T01:21:04;15.40;79.40
73777;DHT22;62088;50.240;2.696;2023-05-07T01:23:33;15.40;79.40
73777;DHT22;62088;50.240;2.696;2023-05-07T01:26:02;15.40;79.50
73777;DHT22;62088;50.240;2.696;2023-05-07T01:28:31;15.40;79.50
73777;DHT22;62088;50.240;2.696;2023-05-07T01:31:03;15.40;79.50
73777;DHT22;62088;50.240;2.696;2023-05-07T01:33:36;15.40;79.60
73777;DHT22;62088;50.240;2.696;2023-05-07T01:36:05;15.40;79.60
73777;DHT22;62088;50.240;2.696;2023-05-07T01:38:33;15.40;79.70
73777;DHT22;62088;50.240;2.696;2023-05-07T01:41:01;15.40;79.70
73777;DHT22;62088;50.240;2.696;2023-05-07T01:43:32;15.40;79.70
73777;DHT22;62088;50.240;2.696;2023-05-07T01:45:59;15.40;79.80
73777;DHT22;62088;50.240;2.696;2023-05-07T01:48:27;15.40;79.80
73777;DHT22;62088;50.240;2.696;2023-05-07T01:50:55;15.30;79.80
73777;DHT22;62088;50.240;2.696;2023-05-07T01:53:22;15.40;79.80
73777;DHT22;62088;50.240;2.696;2023-05-07T01:55:49;15.40;79.80
73777;DHT22;62088;50.240;2.696;2023-05-07T01:58:16;15.40;79.90
73777;DHT22;62088;50.240;2.696;2023-05-07T02:00:43;15.40;79.90
73777;DHT22;62088;50.240;2.696;2023-05-07T02:03:11;15.40;79.90
73777;DHT22;62088;50.240;2.696;2023-05-07T02:05:45;15.40;80.00
73777;DHT22;62088;50.240;2.696;2023-05-07T02:08:22;15.30;80.00
73777;DHT22;62088;50.240;2.696;2023-05-07T02:10:49;15.30;80.00
73777;DHT22;62088;50.240;2.696;2023-05-07T02:13:18;15.30;80.10
73777;DHT22;62088;50.240;2.696;2023-05-07T02:15:46;15.30;80.10
73777;DHT22;62088;50.240;2.696;2023-05-07T02:18:17;15.30;80.10
73777;DHT22;62088;50.240;2.696;2023-05-07T02:20:44;15.40;80.20
73777;DHT22;62088;50.240;2.696;2023-05-07T02:23:11;15.30;80.20
73777;DHT22;62088;50.240;2.696;2023-05-07T02:25:38;15.40;80.20
73777;DHT22;62088;50.240;2.696;2023-05-07T02:28:05;15.30;80.30
73777;DHT22;62088;50.240;2.696;2023-05-07T02:30:43;15.30;80.30
73777;DHT22;62088;50.240;2.696;2023-05-07T02:33:10;15.40;80.40
73777;DHT22;62088;50.240;2.696;2023-05-07T02:35:39;15.40;80.40
73777;DHT22;62088;50.240;2.696;2023-05-07T02:38:07;15.40;80.50
73777;DHT22;62088;50.240;2.696;2023-05-07T02:40:34;15.40;80.50
73777;DHT22;62088;50.240;2.696;2023-05-07T02:43:05;15.40;80.50
73777;DHT22;62088;50.240;2.696;2023-05-07T02:45:33;15.40;80.60
73777;DHT22;62088;50.240;2.696;2023-05-07T02:48:01;15.40;80.60
73777;DHT22;62088;50.240;2.696;2023-05-07T02:50:28;15.40;80.60
73777;DHT22;62088;50.240;2.696;2023-05-07T02:52:56;15.40;80.60
73777;DHT22;62088;50.240;2.696;2023-05-07T02:55:23;15.40;80.60
73777;DHT22;62088;50.240;2.696;2023-05-07T02:57:50;15.40;80.60
73777;DHT22;62088;50.240;2.696;2023-05-07T03:00:19;15.40;80.70
73777;DHT22;62088;50.240;2.696;2023-05-07T03:02:54;15.40;80.70
73777;DHT22;62088;50.240;2.696;2023-05-07T03:05:21;15.40;80.70
73777;DHT22;62088;50.240;2.696;2023-05-07T03:07:48;15.40;80.80
73777;DHT22;62088;50.240;2.696;2023-05-07T03:10:15;15.40;80.80
73777;DHT22;62088;50.240;2.696;2023-05-07T03:12:42;15.40;80.80
73777;DHT22;62088;50.240;2.696;2023-05-07T03:15:14;15.40;80.90
73777;DHT22;62088;50.240;2.696;2023-05-07T03:17:41;15.40;80.90
73777;DHT22;62088;50.240;2.696;2023-05-07T03:20:08;15.40;80.90
73777;DHT22;62088;50.240;2.696;2023-05-07T03:22:37;15.40;81.00
73777;DHT22;62088;50.240;2.696;2023-05-07T03:25:05;15.40;81.00
73777;DHT22;62088;50.240;2.696;2023-05-07T03:27:32;15.40;81.10
73777;DHT22;62088;50.240;2.696;2023-05-07T03:30:00;15.40;81.00
73777;DHT22;62088;50.240;2.696;2023-05-07T03:32:27;15.30;81.10
73777;DHT22;62088;50.240;2.696;2023-05-07T03:34:54;15.40;81.10
73777;DHT22;62088;50.240;2.696;2023-05-07T03:37:22;15.40;81.10
73777;DHT22;62088;50.240;2.696;2023-05-07T03:39:49;15.40;81.00
73777;DHT22;62088;50.240;2.696;2023-05-07T03:42:17;15.40;81.10
73777;DHT22;62088;50.240;2.696;2023-05-07T03:44:48;15.30;81.10
73777;DHT22;62088;50.240;2.696;2023-05-07T03:47:15;15.40;81.10
73777;DHT22;62088;50.240;2.696;2023-05-07T03:49:42;15.30;81.10
73777;DHT22;62088;50.240;2.696;2023-05-07T03:52:10;15.30;81.10
73777;DHT22;62088;50.240;2.696;2023-05-07T03:54:37;15.30;81.20
73777;DHT22;62088;50.240;2.696;2023-05-07T03:57:04;15.30;81.20
73777;DHT22;62088;50.240;2.696;2023-05-07T03:59:31;15.30;81.20
73777;DHT22;62088;50.240;2.696;2023-05-07T04:01:58;15.30;81.20
73777;DHT22;62088;50.240;2.696;2023-05-07T04:04:28;15.30;81.30
73777;DHT22;62088;50.240;2.696;2023-05-07T04:07:00;15.30;81.30
73777;DHT22;62088;50.240;2.696;2023-05-07T04:09:28;15.30;81.40
73777;DHT22;62088;50.240;2.696;2023-05-07T04:11:56;15.30;81.40
73777;DHT22;62088;50.240;2.696;2023-05-07T04:14:23;15.30;81.40
73777;DHT22;62088;50.240;2.696;2023-05-07T04:16:50;15.20;81.40
73777;DHT22;62088;50.240;2.696;2023-05-07T04:19:18;15.30;81.40
73777;DHT22;62088;50.240;2.696;2023-05-07T04:21:47;15.30;81.50
73777;DHT22;62088;50.240;2.696;2023-05-07T04:24:14;15.30;81.50
73777;DHT22;62088;50.240;2.696;2023-05-07T04:26:42;15.20;81.50
73777;DHT22;62088;50.240;2.696;2023-05-07T04:29:09;15.20;81.50
73777;DHT22;62088;50.240;2.696;2023-05-07T04:31:37;15.30;81.60
73777;DHT22;62088;50.240;2.696;2023-05-07T04:34:04;15.20;81.60
73777;DHT22;62088;50.240;2.696;2023-05-07T04:36:31;15.30;81.70
73777;DHT22;62088;50.240;2.696;2023-05-07T04:39:03;15.20;81.70
73777;DHT22;62088;50.240;2.696;2023-05-07T04:41:31;15.20;81.70
73777;DHT22;62088;50.240;2.696;2023-05-07T04:43:59;15.20;81.80
73777;DHT22;62088;50.240;2.696;2023-05-07T04:46:29;15.20;81.80
73777;DHT22;62088;50.240;2.696;2023-05-07T04:48:57;15.20;81.90
73777;DHT22;62088;50.240;2.696;2023-05-07T04:51:24;15.20;81.90
73777;DHT22;62088;50.240;2.696;2023-05-07T04:53:52;15.20;82.00
73777;DHT22;62088;50.240;2.696;2023-05-07T04:56:19;15.20;82.10
73777;DHT22;62088;50.240;2.696;2023-05-07T04:58:47;15.20;82.10
73777;DHT22;62088;50.240;2.696;2023-05-07T05:01:17;15.20;82.20
73777;DHT22;62088;50.240;2.696;2023-05-07T05:03:44;15.20;82.20
73777;DHT22;62088;50.240;2.696;2023-05-07T05:06:12;15.20;82.30
73777;DHT22;62088;50.240;2.696;2023-05-07T05:08:39;15.20;82.30
73777;DHT22;62088;50.240;2.696;2023-05-07T05:11:06;15.20;82.40
73777;DHT22;62088;50.240;2.696;2023-05-07T05:13:35;15.20;82.40
73777;DHT22;62088;50.240;2.696;2023-05-07T05:16:09;15.20;82.40
73777;DHT22;62088;50.240;2.696;2023-05-07T05:18:37;15.30;82.40
73777;DHT22;62088;50.240;2.696;2023-05-07T05:21:05;15.30;82.40
73777;DHT22;62088;50.240;2.696;2023-05-07T05:23:32;15.30;82.40
73777;DHT22;62088;50.240;2.696;2023-05-07T05:26:00;15.30;82.50
73777;DHT22;62088;50.240;2.696;2023-05-07T05:28:30;15.30;82.50
73777;DHT22;62088;50.240;2.696;2023-05-07T05:30:57;15.30;82.50
73777;DHT22;62088;50.240;2.696;2023-05-07T05:33:27;15.30;82.50
73777;DHT22;62088;50.240;2.696;2023-05-07T05:36:00;15.30;82.50
73777;DHT22;62088;50.240;2.696;2023-05-07T05:38:27;15.30;82.50
73777;DHT22;62088;50.240;2.696;2023-05-07T05:40:55;15.30;82.50
73777;DHT22;62088;50.240;2.696;2023-05-07T05:43:23;15.30;82.50
73777;DHT22;62088;50.240;2.696;2023-05-07T05:45:50;15.30;82.50
73777;DHT22;62088;50.240;2.696;2023-05-07T05:48:17;15.30;82.50
73777;DHT22;62088;50.240;2.696;2023-05-07T05:50:44;15.30;82.60
73777;DHT22;62088;50.240;2.696;2023-05-07T05:53:12;15.40;82.60
73777;DHT22;62088;50.240;2.696;2023-05-07T05:55:39;15.30;82.60
73777;DHT22;62088;50.240;2.696;2023-05-07T05:58:07;15.40;82.60
73777;DHT22;62088;50.240;2.696;2023-05-07T06:00:38;15.30;82.60
73777;DHT22;62088;50.240;2.696;2023-05-07T06:03:06;15.40;82.60
73777;DHT22;62088;50.240;2.696;2023-05-07T06:05:34;15.40;82.60
73777;DHT22;62088;50.240;2.696;2023-05-07T06:08:02;15.40;82.60
73777;DHT22;62088;50.240;2.696;2023-05-07T06:10:32;15.40;82.60
73777;DHT22;62088;50.240;2.696;2023-05-07T06:12:59;15.40;82.60
73777;DHT22;62088;50.240;2.696;2023-05-07T06:15:27;15.40;82.60
73777;DHT22;62088;50.240;2.696;2023-05-07T06:17:54;15.40;82.70
73777;DHT22;62088;50.240;2.696;2023-05-07T06:20:24;15.40;82.70
73777;DHT22;62088;50.240;2.696;2023-05-07T06:22:51;15.40;82.70
73777;DHT22;62088;50.240;2.696;2023-05-07T06:25:18;15.50;82.80
73777;DHT22;62088;50.240;2.696;2023-05-07T06:27:45;15.50;82.80
73777;DHT22;62088;50.240;2.696;2023-05-07T06:30:12;15.50;82.80
73777;DHT22;62088;50.240;2.696;2023-05-07T06:32:40;15.50;82.80
73777;DHT22;62088;50.240;2.696;2023-05-07T06:35:08;15.50;82.90
73777;DHT22;62088;50.240;2.696;2023-05-07T06:37:37;15.60;82.90
73777;DHT22;62088;50.240;2.696;2023-05-07T06:40:14;15.60;82.90
73777;DHT22;62088;50.240;2.696;2023-05-07T06:42:44;15.60;83.00
73777;DHT22;62088;50.240;2.696;2023-05-07T06:45:32;15.60;83.00
73777;DHT22;62088;50.240;2.696;2023-05-07T06:48:00;15.60;83.10
73777;DHT22;62088;50.240;2.696;2023-05-07T06:50:28;15.70;83.10
73777;DHT22;62088;50.240;2.696;2023-05-07T06:52:57;15.70;83.10
73777;DHT22;62088;50.240;2.696;2023-05-07T06:55:24;15.70;83.10
73777;DHT22;62088;50.240;2.696;2023-05-07T06:57:53;15.80;83.20
73777;DHT22;62088;50.240;2.696;2023-05-07T07:00:21;15.80;83.20
73777;DHT22;62088;50.240;2.696;2023-05-07T07:02:54;15.80;83.20
73777;DHT22;62088;50.240;2.696;2023-05-07T07:05:24;15.80;83.10
73777;DHT22;62088;50.240;2.696;2023-05-07T07:07:52;15.80;83.10
73777;DHT22;62088;50.240;2.696;2023-05-07T07:10:22;15.90;83.10
73777;DHT22;62088;50.240;2.696;2023-05-07T07:12:50;15.90;83.10
73777;DHT22;62088;50.240;2.696;2023-05-07T07:15:19;15.90;83.00
73777;DHT22;62088;50.240;2.696;2023-05-07T07:17:48;15.90;83.00
73777;DHT22;62088;50.240;2.696;2023-05-07T07:20:16;15.90;83.00
73777;DHT22;62088;50.240;2.696;2023-05-07T07:22:44;15.90;83.10
73777;DHT22;62088;50.240;2.696;2023-05-07T07:25:12;15.90;83.10
73777;DHT22;62088;50.240;2.696;2023-05-07T07:27:39;15.90;83.10
73777;DHT22;62088;50.240;2.696;2023-05-07T07:30:08;15.90;83.20
73777;DHT22;62088;50.240;2.696;2023-05-07T07:32:38;15.90;83.10
73777;DHT22;62088;50.240;2.696;2023-05-07T07:35:06;16.00;83.20
73777;DHT22;62088;50.240;2.696;2023-05-07T07:37:33;15.90;83.20
73777;DHT22;62088;50.240;2.696;2023-05-07T07:40:00;16.00;83.20
73777;DHT22;62088;50.240;2.696;2023-05-07T07:42:27;16.00;83.30
73777;DHT22;62088;50.240;2.696;2023-05-07T07:44:56;16.00;83.30
73777;DHT22;62088;50.240;2.696;2023-05-07T07:47:27;16.00;83.30
73777;DHT22;62088;50.240;2.696;2023-05-07T07:49:54;16.00;83.40
73777;DHT22;62088;50.240;2.696;2023-05-07T07:52:21;16.10;83.40
73777;DHT22;62088;50.240;2.696;2023-05-07T07:54:48;16.00;83.40
73777;DHT22;62088;50.240;2.696;2023-05-07T07:57:15;16.10;83.50
73777;DHT22;62088;50.240;2.696;2023-05-07T07:59:42;16.10;83.40
73777;DHT22;62088;50.240;2.696;2023-05-07T08:02:11;16.10;83.40
73777;DHT22;62088;50.240;2.696;2023-05-07T08:04:39;16.10;83.50
73777;DHT22;62088;50.240;2.696;2023-05-07T08:07:07;16.10;83.50
73777;DHT22;62088;50.240;2.696;2023-05-07T08:09:39;16.10;83.60
73777;DHT22;62088;50.240;2.696;2023-05-07T08:12:07;16.10;83.60
73777;DHT22;62088;50.240;2.696;2023-05-07T08:14:36;16.10;83.60
73777;DHT22;62088;50.240;2.696;2023-05-07T08:17:06;16.20;83.60
73777;DHT22;62088;50.240;2.696;2023-05-07T08:19:33;16.10;83.60
73777;DHT22;62088;50.240;2.696;2023-05-07T08:22:03;16.20;83.60
73777;DHT22;62088;50.240;2.696;2023-05-07T08:24:32;16.20;83.70
73777;DHT22;62088;50.240;2.696;2023-05-07T08:26:59;16.20;83.80
73777;DHT22;62088;50.240;2.696;2023-05-07T08:29:26;16.20;83.90
73777;DHT22;62088;50.240;2.696;2023-05-07T08:31:53;16.20;83.90
73777;DHT22;62088;50.240;2.696;2023-05-07T08:34:21;16.20;83.90
73777;DHT22;62088;50.240;2.696;2023-05-07T08:36:50;16.20;83.90
73777;DHT22;62088;50.240;2.696;2023-05-07T08:39:20;16.20;84.00
73777;DHT22;62088;50.240;2.696;2023-05-07T08:41:52;16.20;84.00
73777;DHT22;62088;50.240;2.696;2023-05-07T08:44:22;16.20;84.10
73777;DHT22;62088;50.240;2.696;2023-05-07T08:46:51;16.20;84.10
73777;DHT22;62088;50.240;2.696;2023-05-07T08:49:21;16.30;84.10
73777;DHT22;62088;50.240;2.696;2023-05-07T08:51:49;16.30;84.10
73777;DHT22;62088;50.240;2.696;2023-05-07T08:54:16;16.30;84.10
73777;DHT22;62088;50.240;2.696;2023-05-07T08:56:45;16.30;84.10
73777;DHT22;62088;50.240;2.696;2023-05-07T08:59:13;16.30;84.20
73777;DHT22;62088;50.240;2.696;2023-05-07T09:01:41;16.30;84.20
73777;DHT22;62088;50.240;2.696;2023-05-07T09:04:09;16.30;84.20
73777;DHT22;62088;50.240;2.696;2023-05-07T09:06:37;16.40;84.20
73777;DHT22;62088;50.240;2.696;2023-05-07T09:09:14;16.40;84.20
73777;DHT22;62088;50.240;2.696;2023-05-07T09:11:44;16.30;84.20
73777;DHT22;62088;50.240;2.696;2023-05-07T09:14:13;16.40;84.20
73777;DHT22;62088;50.240;2.696;2023-05-07T09:16:42;16.40;84.30
73777;DHT22;62088;50.240;2.696;2023-05-07T09:19:10;16.40;84.30
73777;DHT22;62088;50.240;2.696;2023-05-07T09:21:42;16.40;84.30
73777;DHT22;62088;50.240;2.696;2023-05-07T09:24:10;16.40;84.20
73777;DHT22;62088;50.240;2.696;2023-05-07T09:26:40;16.40;84.30
73777;DHT22;62088;50.240;2.696;2023-05-07T09:29:10;16.40;84.30
73777;DHT22;62088;50.240;2.696;2023-05-07T09:31:38;16.40;84.30
73777;DHT22;62088;50.240;2.696;2023-05-07T09:34:07;16.40;84.30
73777;DHT22;62088;50.240;2.696;2023-05-07T09:36:37;16.40;84.20
73777;DHT22;62088;50.240;2.696;2023-05-07T09:39:04;16.40;84.30
73777;DHT22;62088;50.240;2.696;2023-05-07T09:41:32;16.50;84.30
73777;DHT22;62088;50.240;2.696;2023-05-07T09:44:06;16.50;84.30
73777;DHT22;62088;50.240;2.696;2023-05-07T09:46:43;16.50;84.30
73777;DHT22;62088;50.240;2.696;2023-05-07T09:49:23;16.50;84.30
73777;DHT22;62088;50.240;2.696;2023-05-07T09:52:00;16.50;84.30
73777;DHT22;62088;50.240;2.696;2023-05-07T09:54:30;16.60;84.40
73777;DHT22;62088;50.240;2.696;2023-05-07T09:57:02;16.60;84.40
73777;DHT22;62088;50.240;2.696;2023-05-07T09:59:31;16.60;84.30
73777;DHT22;62088;50.240;2.696;2023-05-07T10:02:03;16.70;84.30
73777;DHT22;62088;50.240;2.696;2023-05-07T10:04:35;16.70;84.30
73777;DHT22;62088;50.240;2.696;2023-05-07T10:07:04;16.70;84.30
73777;DHT22;62088;50.240;2.696;2023-05-07T10:09:33;16.80;84.30
73777;DHT22;62088;50.240;2.696;2023-05-07T10:12:02;16.80;84.20
73777;DHT22;62088;50.240;2.696;2023-05-07T10:14:30;16.80;84.20
73777;DHT22;62088;50.240;2.696;2023-05-07T10:16:57;16.90;84.20
73777;DHT22;62088;50.240;2.696;2023-05-07T10:19:26;16.90;84.10
73777;DHT22;62088;50.240;2.696;2023-05-07T10:22:02;16.90;84.00
73777;DHT22;62088;50.240;2.696;2023-05-07T10:24:34;16.90;84.00
73777;DHT22;62088;50.240;2.696;2023-05-07T10:27:11;17.00;84.10
73777;DHT22;62088;50.240;2.696;2023-05-07T10:32:42;17.10;83.90
73777;DHT22;62088;50.240;2.696;2023-05-07T10:35:21;17.00;83.80
73777;DHT22;62088;50.240;2.696;2023-05-07T10:37:50;17.10;83.90
73777;DHT22;62088;50.240;2.696;2023-05-07T10:40:20;17.10;83.90
73777;DHT22;62088;50.240;2.696;2023-05-07T10:43:00;17.10;83.80
73777;DHT22;62088;50.240;2.696;2023-05-07T10:45:33;17.20;83.90
73777;DHT22;62088;50.240;2.696;2023-05-07T10:48:05;17.20;83.90
73777;DHT22;62088;50.240;2.696;2023-05-07T10:51:18;17.20;83.80
73777;DHT22;62088;50.240;2.696;2023-05-07T10:56:55;17.30;83.70
73777;DHT22;62088;50.240;2.696;2023-05-07T10:59:34;17.30;83.60
73777;DHT22;62088;50.240;2.696;2023-05-07T11:02:16;17.40;83.60
73777;DHT22;62088;50.240;2.696;2023-05-07T11:05:24;17.40;83.50
73777;DHT22;62088;50.240;2.696;2023-05-07T11:08:05;17.40;83.40
73777;DHT22;62088;50.240;2.696;2023-05-07T11:10:57;17.40;83.30
73777;DHT22;62088;50.240;2.696;2023-05-07T11:13:51;17.40;83.30
73777;DHT22;62088;50.240;2.696;2023-05-07T11:16:35;17.50;83.40
73777;DHT22;62088;50.240;2.696;2023-05-07T11:19:54;17.50;83.40
73777;DHT22;62088;50.240;2.696;2023-05-07T11:25:22;17.60;83.40
73777;DHT22;62088;50.240;2.696;2023-05-07T11:27:56;17.70;83.50
73777;DHT22;62088;50.240;2.696;2023-05-07T11:30:24;17.80;83.50
73777;DHT22;62088;50.240;2.696;2023-05-07T11:32:52;17.90;83.60
73777;DHT22;62088;50.240;2.696;2023-05-07T11:35:22;17.90;83.50
73777;DHT22;62088;50.240;2.696;2023-05-07T11:37:59;18.00;83.30
73777;DHT22;62088;50.240;2.696;2023-05-07T11:40:28;18.10;83.10
73777;DHT22;62088;50.240;2.696;2023-05-07T11:42:55;18.10;83.00
73777;DHT22;62088;50.240;2.696;2023-05-07T11:45:23;18.20;82.80
73777;DHT22;62088;50.240;2.696;2023-05-07T11:47:54;18.20;82.60
73777;DHT22;62088;50.240;2.696;2023-05-07T11:50:21;18.30;82.20
73777;DHT22;62088;50.240;2.696;2023-05-07T11:52:52;18.40;81.80
73777;DHT22;62088;50.240;2.696;2023-05-07T11:55:19;18.40;81.60
73777;DHT22;62088;50.240;2.696;2023-05-07T11:57:46;18.40;81.60
73777;DHT22;62088;50.240;2.696;2023-05-07T12:00:16;18.50;81.40
73777;DHT22;62088;50.240;2.696;2023-05-07T12:02:45;18.50;81.20
73777;DHT22;62088;50.240;2.696;2023-05-07T12:05:12;18.60;81.10
73777;DHT22;62088;50.240;2.696;2023-05-07T12:07:40;18.60;81.00
73777;DHT22;62088;50.240;2.696;2023-05-07T12:10:07;18.60;81.00
73777;DHT22;62088;50.240;2.696;2023-05-07T12:12:41;18.70;81.00
73777;DHT22;62088;50.240;2.696;2023-05-07T12:15:11;18.70;80.90
73777;DHT22;62088;50.240;2.696;2023-05-07T12:17:38;18.80;80.80
73777;DHT22;62088;50.240;2.696;2023-05-07T12:20:07;18.80;80.60
73777;DHT22;62088;50.240;2.696;2023-05-07T12:22:36;18.80;80.50
73777;DHT22;62088;50.240;2.696;2023-05-07T12:25:06;18.80;80.30
73777;DHT22;62088;50.240;2.696;2023-05-07T12:27:37;18.90;80.10
73777;DHT22;62088;50.240;2.696;2023-05-07T12:30:05;18.90;80.10
73777;DHT22;62088;50.240;2.696;2023-05-07T12:32:32;18.90;80.00
73777;DHT22;62088;50.240;2.696;2023-05-07T12:35:05;19.00;79.90
73777;DHT22;62088;50.240;2.696;2023-05-07T12:37:33;18.90;79.80
73777;DHT22;62088;50.240;2.696;2023-05-07T12:40:06;19.00;79.70
73777;DHT22;62088;50.240;2.696;2023-05-07T12:42:39;19.00;79.60
73777;DHT22;62088;50.240;2.696;2023-05-07T12:45:15;19.00;79.60
73777;DHT22;62088;50.240;2.696;2023-05-07T12:47:44;19.10;79.50
73777;DHT22;62088;50.240;2.696;2023-05-07T12:50:16;19.10;79.40
73777;DHT22;62088;50.240;2.696;2023-05-07T12:52:44;19.10;79.40
73777;DHT22;62088;50.240;2.696;2023-05-07T12:55:14;19.20;79.40
73777;DHT22;62088;50.240;2.696;2023-05-07T12:57:47;19.20;79.40
73777;DHT22;62088;50.240;2.696;2023-05-07T13:00:15;19.20;79.30
73777;DHT22;62088;50.240;2.696;2023-05-07T13:02:43;19.20;79.20
73777;DHT22;62088;50.240;2.696;2023-05-07T13:05:11;19.20;79.10
73777;DHT22;62088;50.240;2.696;2023-05-07T13:07:39;19.20;79.00
73777;DHT22;62088;50.240;2.696;2023-05-07T13:10:08;19.20;78.90
73777;DHT22;62088;50.240;2.696;2023-05-07T13:12:35;19.30;78.90
73777;DHT22;62088;50.240;2.696;2023-05-07T13:15:03;19.30;78.90
73777;DHT22;62088;50.240;2.696;2023-05-07T13:17:30;19.30;78.80
73777;DHT22;62088;50.240;2.696;2023-05-07T13:19:58;19.30;78.70
73777;DHT22;62088;50.240;2.696;2023-05-07T13:22:25;19.30;78.60
73777;DHT22;62088;50.240;2.696;2023-05-07T13:24:52;19.30;78.40
73777;DHT22;62088;50.240;2.696;2023-05-07T13:27:19;19.40;78.30
73777;DHT22;62088;50.240;2.696;2023-05-07T13:29:46;19.30;78.20
73777;DHT22;62088;50.240;2.696;2023-05-07T13:32:13;19.30;78.20
73777;DHT22;62088;50.240;2.696;2023-05-07T13:34:40;19.30;78.10
73777;DHT22;62088;50.240;2.696;2023-05-07T13:37:07;19.30;78.20
73777;DHT22;62088;50.240;2.696;2023-05-07T13:39:37;19.30;78.20
73777;DHT22;62088;50.240;2.696;2023-05-07T13:42:04;19.30;78.10
73777;DHT22;62088;50.240;2.696;2023-05-07T13:44:31;19.30;78.10
73777;DHT22;62088;50.240;2.696;2023-05-07T13:46:58;19.30;78.10
73777;DHT22;62088;50.240;2.696;2023-05-07T13:49:25;19.30;78.10
73777;DHT22;62088;50.240;2.696;2023-05-07T13:51:52;19.30;78.20
73777;DHT22;62088;50.240;2.696;2023-05-07T13:54:19;19.30;78.30
73777;DHT22;62088;50.240;2.696;2023-05-07T13:56:46;19.40;78.30
73777;DHT22;62088;50.240;2.696;2023-05-07T13:59:14;19.40;78.10
73777;DHT22;62088;50.240;2.696;2023-05-07T14:01:41;19.40;78.00
73777;DHT22;62088;50.240;2.696;2023-05-07T14:04:08;19.40;77.90
73777;DHT22;62088;50.240;2.696;2023-05-07T14:06:35;19.40;78.00
73777;DHT22;62088;50.240;2.696;2023-05-07T14:09:02;19.50;78.10
73777;DHT22;62088;50.240;2.696;2023-05-07T14:11:29;19.60;77.80
73777;DHT22;62088;50.240;2.696;2023-05-07T14:13:59;19.70;77.70
73777;DHT22;62088;50.240;2.696;2023-05-07T14:16:26;19.80;77.30
73777;DHT22;62088;50.240;2.696;2023-05-07T14:18:53;19.80;77.10
73777;DHT22;62088;50.240;2.696;2023-05-07T14:21:24;19.80;76.90
73777;DHT22;62088;50.240;2.696;2023-05-07T14:23:51;19.90;76.70
73777;DHT22;62088;50.240;2.696;2023-05-07T14:26:18;19.90;76.50
73777;DHT22;62088;50.240;2.696;2023-05-07T14:28:45;19.90;76.40
73777;DHT22;62088;50.240;2.696;2023-05-07T14:31:13;20.00;76.20
73777;DHT22;62088;50.240;2.696;2023-05-07T14:33:40;20.10;76.00
73777;DHT22;62088;50.240;2.696;2023-05-07T14:36:08;20.20;75.70
73777;DHT22;62088;50.240;2.696;2023-05-07T14:38:35;20.10;75.50
73777;DHT22;62088;50.240;2.696;2023-05-07T14:41:02;20.20;75.40
73777;DHT22;62088;50.240;2.696;2023-05-07T14:43:30;20.30;75.40
73777;DHT22;62088;50.240;2.696;2023-05-07T14:45:57;20.40;75.20
73777;DHT22;62088;50.240;2.696;2023-05-07T14:48:24;20.40;75.00
73777;DHT22;62088;50.240;2.696;2023-05-07T14:50:51;20.50;74.90
73777;DHT22;62088;50.240;2.696;2023-05-07T14:53:18;20.60;74.70
73777;DHT22;62088;50.240;2.696;2023-05-07T14:55:45;20.70;74.40
73777;DHT22;62088;50.240;2.696;2023-05-07T14:58:12;20.80;74.10
73777;DHT22;62088;50.240;2.696;2023-05-07T15:00:39;20.90;74.20
73777;DHT22;62088;50.240;2.696;2023-05-07T15:03:07;21.00;74.00
73777;DHT22;62088;50.240;2.696;2023-05-07T15:05:35;21.10;73.70
73777;DHT22;62088;50.240;2.696;2023-05-07T15:08:03;21.20;73.40
73777;DHT22;62088;50.240;2.696;2023-05-07T15:10:30;21.20;73.10
73777;DHT22;62088;50.240;2.696;2023-05-07T15:12:57;21.30;72.80
73777;DHT22;62088;50.240;2.696;2023-05-07T15:15:24;21.40;72.60
73777;DHT22;62088;50.240;2.696;2023-05-07T15:17:52;21.40;72.70
73777;DHT22;62088;50.240;2.696;2023-05-07T15:20:19;21.50;72.50
73777;DHT22;62088;50.240;2.696;2023-05-07T15:22:46;21.60;72.30
73777;DHT22;62088;50.240;2.696;2023-05-07T15:25:13;21.70;72.20
73777;DHT22;62088;50.240;2.696;2023-05-07T15:27:41;21.80;71.80
73777;DHT22;62088;50.240;2.696;2023-05-07T15:30:08;21.90;71.40
73777;DHT22;62088;50.240;2.696;2023-05-07T15:32:37;21.90;71.00
73777;DHT22;62088;50.240;2.696;2023-05-07T15:35:05;21.90;70.80
73777;DHT22;62088;50.240;2.696;2023-05-07T15:37:33;21.90;70.50
73777;DHT22;62088;50.240;2.696;2023-05-07T15:40:00;21.90;70.20
73777;DHT22;62088;50.240;2.696;2023-05-07T15:42:29;21.80;70.20
73777;DHT22;62088;50.240;2.696;2023-05-07T15:44:56;21.80;70.20
73777;DHT22;62088;50.240;2.696;2023-05-07T15:47:23;21.70;70.50
73777;DHT22;62088;50.240;2.696;2023-05-07T15:49:50;21.60;70.80
73777;DHT22;62088;50.240;2.696;2023-05-07T15:52:17;21.60;70.90